Home > Products > Valid Products > TAF

000
FTUS42 KMFL 060232 AAA
TAFMIA
TAF AMD
KMIA 060232Z 0603/0624 19003KT P6SM SKC
     FM061400 11010KT P6SM VCSH SCT035=



000
FTUS42 KMFL 060232 AAA
TAFFLL
TAF AMD
KFLL 060232Z 0603/0624 20003KT P6SM FEW050
     FM061400 09010KT P6SM VCSH SCT035=



000
FTUS42 KMFL 060232 AAA
TAFAPF
TAF AMD
KAPF 060232Z 0603/0624 17005KT P6SM SKC
     FM060700 00000KT 3SM BR FEW005
      TEMPO 0610/0612 1SM BR SCT005
     FM061300 07005KT P6SM FEW020
     FM061700 29009KT P6SM SKC=



000
FTUS42 KMFL 060232 AAA
TAFPBI
TAF AMD
KPBI 060232Z 0603/0624 20003KT P6SM FEW060 BKN100
     FM061500 11008KT P6SM VCSH SCT035=



000
FTUS42 KMFL 060232 AAA
TAFAPF
TAF AMD
KAPF 060232Z 0603/0624 17005KT P6SM SKC
     FM060700 00000KT 3SM BR FEW005
      TEMPO 0610/0612 1SM BR SCT005
     FM061300 07005KT P6SM FEW020
     FM061700 29009KT P6SM SKC=



000
FTUS42 KMFL 060232 AAA
TAFMIA
TAF AMD
KMIA 060232Z 0603/0624 19003KT P6SM SKC
     FM061400 11010KT P6SM VCSH SCT035=



000
FTUS42 KMFL 060232 AAA
TAFPBI
TAF AMD
KPBI 060232Z 0603/0624 20003KT P6SM FEW060 BKN100
     FM061500 11008KT P6SM VCSH SCT035=



000
FTUS42 KMFL 060232 AAA
TAFFLL
TAF AMD
KFLL 060232Z 0603/0624 20003KT P6SM FEW050
     FM061400 09010KT P6SM VCSH SCT035=



000
FTUS42 KMFL 052320
TAFPBI
TAF
KPBI 052320Z 0600/0624 16010KT P6SM FEW040 SCT050
     FM060200 VRB02KT P6SM FEW025
     FM061500 11008KT P6SM VCSH SCT035=



000
FTUS42 KMFL 052320
TAFMIA
TAF
KMIA 052320Z 0600/0624 16010KT P6SM FEW035
     FM060200 VRB02KT P6SM FEW035
     FM061400 11010KT P6SM VCSH SCT035=



000
FTUS42 KMFL 052320
TAFPBI
TAF
KPBI 052320Z 0600/0624 16010KT P6SM FEW040 SCT050
     FM060200 VRB02KT P6SM FEW025
     FM061500 11008KT P6SM VCSH SCT035=



000
FTUS42 KMFL 052320
TAFAPF
TAF
KAPF 052320Z 0600/0624 21005KT P6SM SKC
     FM060200 VRB02KT P6SM SKC
     FM060700 00000KT 3SM BR FEW005
      TEMPO 0610/0612 1SM BR SCT005
     FM061300 07005KT P6SM FEW020
     FM061700 29009KT P6SM SKC=



000
FTUS42 KMFL 052320
TAFAPF
TAF
KAPF 052320Z 0600/0624 21005KT P6SM SKC
     FM060200 VRB02KT P6SM SKC
     FM060700 00000KT 3SM BR FEW005
      TEMPO 0610/0612 1SM BR SCT005
     FM061300 07005KT P6SM FEW020
     FM061700 29009KT P6SM SKC=



000
FTUS42 KMFL 052320
TAFMIA
TAF
KMIA 052320Z 0600/0624 16010KT P6SM FEW035
     FM060200 VRB02KT P6SM FEW035
     FM061400 11010KT P6SM VCSH SCT035=



000
FTUS42 KMFL 052320
TAFFLL
TAF
KFLL 052320Z 0600/0624 16010KT P6SM FEW025
     FM060200 15003KT P6SM FEW030
     FM061400 09010KT P6SM VCSH SCT035=



000
FTUS42 KMFL 052320
TAFFLL
TAF
KFLL 052320Z 0600/0624 16010KT P6SM FEW025
     FM060200 15003KT P6SM FEW030
     FM061400 09010KT P6SM VCSH SCT035=



000
FTUS42 KMFL 052105 AAA
TAFMIA
TAF AMD
KMIA 052105Z 0521/0618 16011G22KT P6SM FEW035 FEW300
     FM060000 15005KT P6SM SCT025 SCT250
     FM060300 VRB03KT P6SM SCT025 SCT250=



000
FTUS42 KMFL 052105 AAA
TAFFLL
TAF AMD
KFLL 052105Z 0521/0618 15012KT P6SM FEW027
     FM060000 16005KT P6SM SCT030 SCT250
     FM060300 VRB03KT P6SM SCT025 SCT250=



000
FTUS42 KMFL 052105 AAA
TAFPBI
TAF AMD
KPBI 052105Z 0521/0618 14015KT P6SM FEW040
     FM060000 16005KT P6SM SCT025 SCT250
     FM060300 VRB03KT P6SM SCT025 SCT250=



000
FTUS42 KMFL 052105 AAA
TAFPBI
TAF AMD
KPBI 052105Z 0521/0618 14015KT P6SM FEW040
     FM060000 16005KT P6SM SCT025 SCT250
     FM060300 VRB03KT P6SM SCT025 SCT250=



000
FTUS42 KMFL 052105 AAA
TAFMIA
TAF AMD
KMIA 052105Z 0521/0618 16011G22KT P6SM FEW035 FEW300
     FM060000 15005KT P6SM SCT025 SCT250
     FM060300 VRB03KT P6SM SCT025 SCT250=



000
FTUS42 KMFL 052105 AAA
TAFFLL
TAF AMD
KFLL 052105Z 0521/0618 15012KT P6SM FEW027
     FM060000 16005KT P6SM SCT030 SCT250
     FM060300 VRB03KT P6SM SCT025 SCT250=



000
FTUS42 KMFL 052105 AAA
TAFAPF
TAF AMD
KAPF 052105Z 0521/0618 20011KT P6SM SCT021
     FM060000 VRB03KT P6SM SCT025 SCT250
     FM060900 VRB02KT 5SM BR SCT012=



000
FTUS42 KMFL 052105 AAA
TAFAPF
TAF AMD
KAPF 052105Z 0521/0618 20011KT P6SM SCT021
     FM060000 VRB03KT P6SM SCT025 SCT250
     FM060900 VRB02KT 5SM BR SCT012=



000
FTUS42 KMFL 051735
TAFAPF
TAF
KAPF 051735Z 0518/0618 17013KT P6SM SCT027 BKN040
     FM052000 20012KT P6SM SCT025 SCT040
     FM060000 VRB03KT P6SM SCT025 SCT250
     FM060900 VRB02KT 5SM BR SCT012=



000
FTUS42 KMFL 051735
TAFMIA
TAF
KMIA 051735Z 0518/0618 15012G20KT P6SM SCT020 BKN035
     FM060000 15005KT P6SM SCT025 SCT250
     FM060300 VRB03KT P6SM SCT025 SCT250=



000
FTUS42 KMFL 051735
TAFFLL
TAF
KFLL 051735Z 0518/0618 16014G21KT P6SM SCT025 BKN035
     FM060000 16005KT P6SM SCT030 SCT250
     FM060300 VRB03KT P6SM SCT025 SCT250=



000
FTUS42 KMFL 051735
TAFPBI
TAF
KPBI 051735Z 0518/0618 17014G22KT P6SM SCT022 BKN040
     FM060000 16005KT P6SM SCT025 SCT250
     FM060300 VRB03KT P6SM SCT025 SCT250=



000
FTUS42 KMFL 051735
TAFFLL
TAF
KFLL 051735Z 0518/0618 16014G21KT P6SM SCT025 BKN035
     FM060000 16005KT P6SM SCT030 SCT250
     FM060300 VRB03KT P6SM SCT025 SCT250=



000
FTUS42 KMFL 051735
TAFMIA
TAF
KMIA 051735Z 0518/0618 15012G20KT P6SM SCT020 BKN035
     FM060000 15005KT P6SM SCT025 SCT250
     FM060300 VRB03KT P6SM SCT025 SCT250=



000
FTUS42 KMFL 051735
TAFAPF
TAF
KAPF 051735Z 0518/0618 17013KT P6SM SCT027 BKN040
     FM052000 20012KT P6SM SCT025 SCT040
     FM060000 VRB03KT P6SM SCT025 SCT250
     FM060900 VRB02KT 5SM BR SCT012=



000
FTUS42 KMFL 051735
TAFPBI
TAF
KPBI 051735Z 0518/0618 17014G22KT P6SM SCT022 BKN040
     FM060000 16005KT P6SM SCT025 SCT250
     FM060300 VRB03KT P6SM SCT025 SCT250=



000
FTUS42 KMFL 051517 AAA
TAFAPF
TAF AMD
KAPF 051517Z 0515/0612 16012G18KT P6SM SCT019 SCT025
     FM051900 21010KT P6SM SCT025
     FM060400 VRB03KT P6SM SCT025=



000
FTUS42 KMFL 051517 AAA
TAFAPF
TAF AMD
KAPF 051517Z 0515/0612 16012G18KT P6SM SCT019 SCT025
     FM051900 21010KT P6SM SCT025
     FM060400 VRB03KT P6SM SCT025=



000
FTUS42 KMFL 051517 AAA
TAFAPF
TAF AMD
KAPF 051517Z 0515/0612 16012G18KT P6SM SCT019 SCT025
     FM051900 21010KT P6SM SCT025
     FM060400 VRB03KT P6SM SCT025=



000
FTUS42 KMFL 051517 AAA
TAFAPF
TAF AMD
KAPF 051517Z 0515/0612 16012G18KT P6SM SCT019 SCT025
     FM051900 21010KT P6SM SCT025
     FM060400 VRB03KT P6SM SCT025=



000
FTUS42 KMFL 051515 AAA
TAFMIA
TAF AMD
KMIA 051515Z 0515/0612 14014G21KT P6SM SCT019 SCT035
     FM060000 15007KT P6SM SCT025 SCT250
     FM060300 13004KT P6SM SCT025 SCT250=



000
FTUS42 KMFL 051515 AAA
TAFMIA
TAF AMD
KMIA 051515Z 0515/0612 14014G21KT P6SM SCT019 SCT035
     FM060000 15007KT P6SM SCT025 SCT250
     FM060300 13004KT P6SM SCT025 SCT250=



000
FTUS42 KMFL 051512 AAA
TAFFLL
TAF AMD
KFLL 051512Z 0515/0612 16014G21KT P6SM SCT020 BKN035
     FM060000 16008KT P6SM SCT030 SCT250
     FM060300 16003KT P6SM SCT025 SCT250=



000
FTUS42 KMFL 051512 AAA
TAFFLL
TAF AMD
KFLL 051512Z 0515/0612 16014G21KT P6SM SCT020 BKN035
     FM060000 16008KT P6SM SCT030 SCT250
     FM060300 16003KT P6SM SCT025 SCT250=



000
FTUS42 KMFL 051512 AAA
TAFFLL
TAF AMD
KFLL 051512Z 0515/0612 16014G21KT P6SM SCT020 BKN035
     FM060000 16008KT P6SM SCT030 SCT250
     FM060300 16003KT P6SM SCT025 SCT250=



000
FTUS42 KMFL 051512 AAA
TAFFLL
TAF AMD
KFLL 051512Z 0515/0612 16014G21KT P6SM SCT020 BKN035
     FM060000 16008KT P6SM SCT030 SCT250
     FM060300 16003KT P6SM SCT025 SCT250=



000
FTUS42 KMFL 051505 AAA
TAFPBI
TAF AMD
KPBI 051505Z 0515/0612 16014G21KT P6SM SCT022 BKN035
     FM060000 16005KT P6SM SCT025
     FM060300 VRB03KT P6SM SCT025=



000
FTUS42 KMFL 051505 AAA
TAFPBI
TAF AMD
KPBI 051505Z 0515/0612 16014G21KT P6SM SCT022 BKN035
     FM060000 16005KT P6SM SCT025
     FM060300 VRB03KT P6SM SCT025=



000
FTUS42 KMFL 051505 AAA
TAFPBI
TAF AMD
KPBI 051505Z 0515/0612 16014G21KT P6SM SCT022 BKN035
     FM060000 16005KT P6SM SCT025
     FM060300 VRB03KT P6SM SCT025=



000
FTUS42 KMFL 051505 AAA
TAFPBI
TAF AMD
KPBI 051505Z 0515/0612 16014G21KT P6SM SCT022 BKN035
     FM060000 16005KT P6SM SCT025
     FM060300 VRB03KT P6SM SCT025=



000
FTUS42 KMFL 051124
TAFMIA
TAF
KMIA 051124Z 0512/0612 14009KT P6SM SCT018 BKN040
     FM051400 14013G18KT P6SM SCT035
     FM060300 13004KT P6SM SCT025=



000
FTUS42 KMFL 051124
TAFAPF
TAF
KAPF 051124Z 0512/0612 12006KT P6SM SCT025
     FM051400 14009KT P6SM SCT030
     FM051900 21010KT P6SM SCT040
     FM060400 VRB03KT P6SM SCT025=



000
FTUS42 KMFL 051124
TAFFLL
TAF
KFLL 051124Z 0512/0612 15011KT P6SM SCT022
     FM051400 15013KT P6SM SCT035
     FM060300 16003KT P6SM SCT025=



000
FTUS42 KMFL 051124
TAFPBI
TAF
KPBI 051124Z 0512/0612 15011G20KT P6SM SCT022
     FM051400 15014KT P6SM SCT025 BKN035
     FM060300 VRB03KT P6SM SCT025=



000
FTUS42 KMFL 051124
TAFAPF
TAF
KAPF 051124Z 0512/0612 12006KT P6SM SCT025
     FM051400 14009KT P6SM SCT030
     FM051900 21010KT P6SM SCT040
     FM060400 VRB03KT P6SM SCT025=



000
FTUS42 KMFL 051124
TAFFLL
TAF
KFLL 051124Z 0512/0612 15011KT P6SM SCT022
     FM051400 15013KT P6SM SCT035
     FM060300 16003KT P6SM SCT025=



000
FTUS42 KMFL 051124
TAFPBI
TAF
KPBI 051124Z 0512/0612 15011G20KT P6SM SCT022
     FM051400 15014KT P6SM SCT025 BKN035
     FM060300 VRB03KT P6SM SCT025=



000
FTUS42 KMFL 051124
TAFMIA
TAF
KMIA 051124Z 0512/0612 14009KT P6SM SCT018 BKN040
     FM051400 14013G18KT P6SM SCT035
     FM060300 13004KT P6SM SCT025=



000
FTUS42 KMFL 050925 AAB
TAFFLL
TAF AMD
KFLL 050925Z 0509/0606 15009KT P6SM SCT022
     FM051400 15013KT P6SM SCT035
     FM060300 16003KT P6SM SCT025=



000
FTUS42 KMFL 050925 AAB
TAFMIA
TAF AMD
KMIA 050925Z 0509/0606 13010G17KT P6SM FEW021
     FM051400 14013KT P6SM SCT035
     FM060300 13004KT P6SM SCT025=



000
FTUS42 KMFL 050925 AAB
TAFPBI
TAF AMD
KPBI 050925Z 0509/0606 15011G20KT P6SM SCT022
     FM051400 15014KT P6SM SCT025 BKN035
     FM060300 22003KT P6SM SCT050=



000
FTUS42 KMFL 050925 AAB
TAFAPF
TAF AMD
KAPF 050925Z 0509/0606 12004KT 6SM BR FEW007 SCT020
     FM051200 13007KT P6SM FEW030
     FM051600 21010KT P6SM SCT040
     FM060400 20003KT P6SM SCT025=



000
FTUS42 KMFL 050615 AAA
TAFFLL
TAF AMD
KFLL 050615Z 0506/0606 14016KT P6SM SCT023
     FM051400 15013KT P6SM SCT035
     FM060300 16003KT P6SM SCT025=



000
FTUS42 KMFL 050615 AAA
TAFMIA
TAF AMD
KMIA 050615Z 0506/0606 13011KT P6SM SCT020
     FM051400 14013KT P6SM SCT035
     FM060300 13004KT P6SM SCT025=



000
FTUS42 KMFL 050615 AAA
TAFAPF
TAF AMD
KAPF 050615Z 0506/0606 13007KT P6SM FEW020
     FM051000 13004KT 5SM BR FEW010
     FM051300 13007KT P6SM FEW030
     FM051600 21010KT P6SM SCT040
     FM060400 20003KT P6SM SCT025=



000
FTUS42 KMFL 050615 AAA
TAFAPF
TAF AMD
KAPF 050615Z 0506/0606 13007KT P6SM FEW020
     FM051000 13004KT 5SM BR FEW010
     FM051300 13007KT P6SM FEW030
     FM051600 21010KT P6SM SCT040
     FM060400 20003KT P6SM SCT025=



000
FTUS42 KMFL 050615 AAA
TAFFLL
TAF AMD
KFLL 050615Z 0506/0606 14016KT P6SM SCT023
     FM051400 15013KT P6SM SCT035
     FM060300 16003KT P6SM SCT025=



000
FTUS42 KMFL 050615 AAA
TAFPBI
TAF AMD
KPBI 050615Z 0506/0606 14011KT P6SM SCT018
     FM051400 15014KT P6SM SCT025 BKN035
     FM060300 22003KT P6SM SCT050=



000
FTUS42 KMFL 050615 AAA
TAFPBI
TAF AMD
KPBI 050615Z 0506/0606 14011KT P6SM SCT018
     FM051400 15014KT P6SM SCT025 BKN035
     FM060300 22003KT P6SM SCT050=



000
FTUS42 KMFL 050615 AAA
TAFAPF
TAF AMD
KAPF 050615Z 0506/0606 13007KT P6SM FEW020
     FM051000 13004KT 5SM BR FEW010
     FM051300 13007KT P6SM FEW030
     FM051600 21010KT P6SM SCT040
     FM060400 20003KT P6SM SCT025=



000
FTUS42 KMFL 050615 AAA
TAFMIA
TAF AMD
KMIA 050615Z 0506/0606 13011KT P6SM SCT020
     FM051400 14013KT P6SM SCT035
     FM060300 13004KT P6SM SCT025=



000
FTUS42 KMFL 050615 AAA
TAFFLL
TAF AMD
KFLL 050615Z 0506/0606 14016KT P6SM SCT023
     FM051400 15013KT P6SM SCT035
     FM060300 16003KT P6SM SCT025=



000
FTUS42 KMFL 050615 AAA
TAFPBI
TAF AMD
KPBI 050615Z 0506/0606 14011KT P6SM SCT018
     FM051400 15014KT P6SM SCT025 BKN035
     FM060300 22003KT P6SM SCT050=



000
FTUS42 KMFL 050615 AAA
TAFMIA
TAF AMD
KMIA 050615Z 0506/0606 13011KT P6SM SCT020
     FM051400 14013KT P6SM SCT035
     FM060300 13004KT P6SM SCT025=



000
FTUS42 KMFL 050615 AAA
TAFPBI
TAF AMD
KPBI 050615Z 0506/0606 14011KT P6SM SCT018
     FM051400 15014KT P6SM SCT025 BKN035
     FM060300 22003KT P6SM SCT050=



000
FTUS42 KMFL 050615 AAA
TAFAPF
TAF AMD
KAPF 050615Z 0506/0606 13007KT P6SM FEW020
     FM051000 13004KT 5SM BR FEW010
     FM051300 13007KT P6SM FEW030
     FM051600 21010KT P6SM SCT040
     FM060400 20003KT P6SM SCT025=



000
FTUS42 KMFL 050615 AAA
TAFFLL
TAF AMD
KFLL 050615Z 0506/0606 14016KT P6SM SCT023
     FM051400 15013KT P6SM SCT035
     FM060300 16003KT P6SM SCT025=



000
FTUS42 KMFL 050615 AAA
TAFMIA
TAF AMD
KMIA 050615Z 0506/0606 13011KT P6SM SCT020
     FM051400 14013KT P6SM SCT035
     FM060300 13004KT P6SM SCT025=



000
FTUS42 KMFL 050604 RRA
TAFPBI
TAF
KPBI 050604Z 0506/0606 14011KT P6SM SCT018
     FM051400 15014KT P6SM SCT025 BKN035=



000
FTUS42 KMFL 050604 RRA
TAFFLL
TAF
KFLL 050604Z 0506/0606 14016KT P6SM SCT023
     FM051400 15013KT P6SM SCT025 BKN035=



000
FTUS42 KMFL 050604 RRA
TAFAPF
TAF
KAPF 050604Z 0506/0606 13007KT P6SM FEW020
     FM051000 13005KT 6SM BR SCT250
     FM051300 13008KT P6SM FEW030
     FM051900 21010KT P6SM SCT040=



000
FTUS42 KMFL 050604 RRA
TAFMIA
TAF
KMIA 050604Z 0506/0606 13011KT P6SM SCT019
     FM051400 14013KT P6SM SCT025 BKN035=



000
FTUS42 KMFL 050604 RRA
TAFPBI
TAF
KPBI 050604Z 0506/0606 14011KT P6SM SCT018
     FM051400 15014KT P6SM SCT025 BKN035=



000
FTUS42 KMFL 050604 RRA
TAFMIA
TAF
KMIA 050604Z 0506/0606 13011KT P6SM SCT019
     FM051400 14013KT P6SM SCT025 BKN035=



000
FTUS42 KMFL 050604 RRA
TAFFLL
TAF
KFLL 050604Z 0506/0606 14016KT P6SM SCT023
     FM051400 15013KT P6SM SCT025 BKN035=



000
FTUS42 KMFL 050604 RRA
TAFAPF
TAF
KAPF 050604Z 0506/0606 13007KT P6SM FEW020
     FM051000 13005KT 6SM BR SCT250
     FM051300 13008KT P6SM FEW030
     FM051900 21010KT P6SM SCT040=



000
FTUS42 KMFL 050604 RRA
TAFPBI
TAF
KPBI 050604Z 0506/0606 14011KT P6SM SCT018
     FM051400 15014KT P6SM SCT025 BKN035=



000
FTUS42 KMFL 050604 RRA
TAFFLL
TAF
KFLL 050604Z 0506/0606 14016KT P6SM SCT023
     FM051400 15013KT P6SM SCT025 BKN035=



000
FTUS42 KMFL 050604 RRA
TAFMIA
TAF
KMIA 050604Z 0506/0606 13011KT P6SM SCT019
     FM051400 14013KT P6SM SCT025 BKN035=



000
FTUS42 KMFL 050604 RRA
TAFAPF
TAF
KAPF 050604Z 0506/0606 13007KT P6SM FEW020
     FM051000 13005KT 6SM BR SCT250
     FM051300 13008KT P6SM FEW030
     FM051900 21010KT P6SM SCT040=



000
FTUS42 KMFL 050604 RRA
TAFAPF
TAF
KAPF 050604Z 0506/0606 13007KT P6SM FEW020
     FM051000 13005KT 6SM BR SCT250
     FM051300 13008KT P6SM FEW030
     FM051900 21010KT P6SM SCT040=



000
FTUS42 KMFL 050604 RRA
TAFFLL
TAF
KFLL 050604Z 0506/0606 14016KT P6SM SCT023
     FM051400 15013KT P6SM SCT025 BKN035=



000
FTUS42 KMFL 050604 RRA
TAFMIA
TAF
KMIA 050604Z 0506/0606 13011KT P6SM SCT019
     FM051400 14013KT P6SM SCT025 BKN035=



000
FTUS42 KMFL 050604 RRA
TAFPBI
TAF
KPBI 050604Z 0506/0606 14011KT P6SM SCT018
     FM051400 15014KT P6SM SCT025 BKN035=



000
FTUS42 KMFL 042322
TAFPBI
TAF
KPBI 042322Z 0500/0524 14010KT P6SM FEW020 SCT030
     FM051400 15014KT P6SM SCT025 BKN035=



000
FTUS42 KMFL 042322
TAFMIA
TAF
KMIA 042322Z 0500/0524 13007KT P6SM SCT025
     FM051400 14013KT P6SM SCT025 BKN035=



000
FTUS42 KMFL 042322
TAFFLL
TAF
KFLL 042322Z 0500/0524 13010KT P6SM SCT025
     FM051400 15013KT P6SM SCT025 BKN035=



000
FTUS42 KMFL 042322
TAFAPF
TAF
KAPF 042322Z 0500/0524 VRB05KT P6SM FEW040 SCT250
     FM051000 13005KT 6SM BR SCT250
     FM051300 13008KT P6SM FEW030
     FM051900 21010KT P6SM SCT040=



000
FTUS42 KMFL 042322
TAFPBI
TAF
KPBI 042322Z 0500/0524 14010KT P6SM FEW020 SCT030
     FM051400 15014KT P6SM SCT025 BKN035=



000
FTUS42 KMFL 042322
TAFMIA
TAF
KMIA 042322Z 0500/0524 13007KT P6SM SCT025
     FM051400 14013KT P6SM SCT025 BKN035=



000
FTUS42 KMFL 042322
TAFFLL
TAF
KFLL 042322Z 0500/0524 13010KT P6SM SCT025
     FM051400 15013KT P6SM SCT025 BKN035=



000
FTUS42 KMFL 042322
TAFAPF
TAF
KAPF 042322Z 0500/0524 VRB05KT P6SM FEW040 SCT250
     FM051000 13005KT 6SM BR SCT250
     FM051300 13008KT P6SM FEW030
     FM051900 21010KT P6SM SCT040=



000
FTUS42 KMFL 042120 AAA
TAFAPF
TAF AMD
KAPF 042120Z 0421/0518 21012KT P6SM FEW035
     FM050000 VRB05KT P6SM FEW040 SCT250
     FM051000 09005KT 6SM BR FEW005
     FM051300 13008KT P6SM SCT030=



000
FTUS42 KMFL 042120 AAA
TAFFLL
TAF AMD
KFLL 042120Z 0421/0518 14012KT P6SM SCT025 SCT035
     FM050100 13010KT P6SM SCT025
     FM051400 15014G21KT P6SM SCT040=



000
FTUS42 KMFL 042120 AAA
TAFAPF
TAF AMD
KAPF 042120Z 0421/0518 21012KT P6SM FEW035
     FM050000 VRB05KT P6SM FEW040 SCT250
     FM051000 09005KT 6SM BR FEW005
     FM051300 13008KT P6SM SCT030=



000
FTUS42 KMFL 042120 AAA
TAFPBI
TAF AMD
KPBI 042120Z 0421/0518 13012KT P6SM SCT025 BKN035
     FM050100 13010KT P6SM SCT025
     FM051400 15013G20KT P6SM SCT040=



000
FTUS42 KMFL 042120 AAA
TAFPBI
TAF AMD
KPBI 042120Z 0421/0518 13012KT P6SM SCT025 BKN035
     FM050100 13010KT P6SM SCT025
     FM051400 15013G20KT P6SM SCT040=



000
FTUS42 KMFL 042120 AAA
TAFMIA
TAF AMD
KMIA 042120Z 0421/0518 13012KT P6SM SCT030 SCT040
     FM050000 12009KT P6SM SCT025
     FM051400 15013G20KT P6SM SCT030=



000
FTUS42 KMFL 042120 AAA
TAFFLL
TAF AMD
KFLL 042120Z 0421/0518 14012KT P6SM SCT025 SCT035
     FM050100 13010KT P6SM SCT025
     FM051400 15014G21KT P6SM SCT040=



000
FTUS42 KMFL 042120 AAA
TAFMIA
TAF AMD
KMIA 042120Z 0421/0518 13012KT P6SM SCT030 SCT040
     FM050000 12009KT P6SM SCT025
     FM051400 15013G20KT P6SM SCT030=



000
FTUS42 KMFL 041739
TAFPBI
TAF
KPBI 041739Z 0418/0518 13014G20KT P6SM FEW025 SCT035
     FM050100 13010KT P6SM SCT025
     FM051400 15013G20KT P6SM SCT040=



000
FTUS42 KMFL 041739
TAFMIA
TAF
KMIA 041739Z 0418/0518 10013G20KT P6SM SCT025 BKN040
     FM050000 12009KT P6SM SCT025
     FM051400 15013G20KT P6SM SCT030=



000
FTUS42 KMFL 041739
TAFFLL
TAF
KFLL 041739Z 0418/0518 13014G20KT P6SM SCT023 SCT035
     FM050100 13010KT P6SM SCT025
     FM051400 15014G21KT P6SM SCT040=



000
FTUS42 KMFL 041739
TAFFLL
TAF
KFLL 041739Z 0418/0518 13014G20KT P6SM SCT023 SCT035
     FM050100 13010KT P6SM SCT025
     FM051400 15014G21KT P6SM SCT040=



000
FTUS42 KMFL 041739
TAFMIA
TAF
KMIA 041739Z 0418/0518 10013G20KT P6SM SCT025 BKN040
     FM050000 12009KT P6SM SCT025
     FM051400 15013G20KT P6SM SCT030=



000
FTUS42 KMFL 041739
TAFAPF
TAF
KAPF 041739Z 0418/0518 14012KT P6SM SCT025
     FM041900 19011KT P6SM SCT050 SCT250
     FM050000 VRB05KT P6SM FEW040 SCT250
     FM051000 09005KT 5SM BR FEW005
     FM051300 13008KT P6SM SCT030=



000
FTUS42 KMFL 041739
TAFPBI
TAF
KPBI 041739Z 0418/0518 13014G20KT P6SM FEW025 SCT035
     FM050100 13010KT P6SM SCT025
     FM051400 15013G20KT P6SM SCT040=



000
FTUS42 KMFL 041739
TAFPBI
TAF
KPBI 041739Z 0418/0518 13014G20KT P6SM FEW025 SCT035
     FM050100 13010KT P6SM SCT025
     FM051400 15013G20KT P6SM SCT040=



000
FTUS42 KMFL 041739
TAFAPF
TAF
KAPF 041739Z 0418/0518 14012KT P6SM SCT025
     FM041900 19011KT P6SM SCT050 SCT250
     FM050000 VRB05KT P6SM FEW040 SCT250
     FM051000 09005KT 5SM BR FEW005
     FM051300 13008KT P6SM SCT030=



000
FTUS42 KMFL 041739
TAFAPF
TAF
KAPF 041739Z 0418/0518 14012KT P6SM SCT025
     FM041900 19011KT P6SM SCT050 SCT250
     FM050000 VRB05KT P6SM FEW040 SCT250
     FM051000 09005KT 5SM BR FEW005
     FM051300 13008KT P6SM SCT030=



000
FTUS42 KMFL 041739
TAFPBI
TAF
KPBI 041739Z 0418/0518 13014G20KT P6SM FEW025 SCT035
     FM050100 13010KT P6SM SCT025
     FM051400 15013G20KT P6SM SCT040=



000
FTUS42 KMFL 041739
TAFFLL
TAF
KFLL 041739Z 0418/0518 13014G20KT P6SM SCT023 SCT035
     FM050100 13010KT P6SM SCT025
     FM051400 15014G21KT P6SM SCT040=



000
FTUS42 KMFL 041739
TAFAPF
TAF
KAPF 041739Z 0418/0518 14012KT P6SM SCT025
     FM041900 19011KT P6SM SCT050 SCT250
     FM050000 VRB05KT P6SM FEW040 SCT250
     FM051000 09005KT 5SM BR FEW005
     FM051300 13008KT P6SM SCT030=



000
FTUS42 KMFL 041739
TAFMIA
TAF
KMIA 041739Z 0418/0518 10013G20KT P6SM SCT025 BKN040
     FM050000 12009KT P6SM SCT025
     FM051400 15013G20KT P6SM SCT030=



000
FTUS42 KMFL 041739
TAFFLL
TAF
KFLL 041739Z 0418/0518 13014G20KT P6SM SCT023 SCT035
     FM050100 13010KT P6SM SCT025
     FM051400 15014G21KT P6SM SCT040=



000
FTUS42 KMFL 041739
TAFMIA
TAF
KMIA 041739Z 0418/0518 10013G20KT P6SM SCT025 BKN040
     FM050000 12009KT P6SM SCT025
     FM051400 15013G20KT P6SM SCT030=



000
FTUS42 KMFL 041533 AAA
TAFAPF
TAF AMD
KAPF 041533Z 0416/0512 13012KT P6SM SCT020
     FM041900 19010KT P6SM SCT050 SCT250
     FM050000 VRB05KT P6SM FEW040 SCT250=



000
FTUS42 KMFL 041533 AAA
TAFAPF
TAF AMD
KAPF 041533Z 0416/0512 13012KT P6SM SCT020
     FM041900 19010KT P6SM SCT050 SCT250
     FM050000 VRB05KT P6SM FEW040 SCT250=



000
FTUS42 KMFL 041530 AAA
TAFMIA
TAF AMD
KMIA 041530Z 0416/0512 12012KT P6SM SCT025 BKN040
     FM050000 12009KT P6SM SCT025=



000
FTUS42 KMFL 041530 AAA
TAFMIA
TAF AMD
KMIA 041530Z 0416/0512 12012KT P6SM SCT025 BKN040
     FM050000 12009KT P6SM SCT025=



000
FTUS42 KMFL 041527 AAA
TAFFLL
TAF AMD
KFLL 041527Z 0415/0512 13014G20KT P6SM SCT024 SCT040
     FM050200 13010KT P6SM SCT025=



000
FTUS42 KMFL 041525 AAA
TAFPBI
TAF AMD
KPBI 041525Z 0415/0512 13013G18KT P6SM FEW023 SCT030
     FM050200 13010KT P6SM SCT025=



000
FTUS42 KMFL 041525 AAA
TAFPBI
TAF AMD
KPBI 041525Z 0415/0512 13013G18KT P6SM FEW023 SCT030
     FM050200 13010KT P6SM SCT025=



000
FTUS42 KMFL 041130
TAFMIA
TAF
KMIA 041130Z 0412/0512 11007KT P6SM FEW020 SCT035
     FM041400 12013G18KT P6SM SCT025 BKN040
     FM050000 12009KT P6SM SCT025=



000
FTUS42 KMFL 041130
TAFPBI
TAF
KPBI 041130Z 0412/0512 13010KT P6SM SCT023
     FM041400 13013G18KT P6SM SCT025 BKN040
     FM050200 13010KT P6SM SCT025=



000
FTUS42 KMFL 041130
TAFFLL
TAF
KFLL 041130Z 0412/0512 13011KT P6SM SCT022
     FM041400 13014G20KT P6SM SCT025 BKN040
     FM050200 13010KT P6SM SCT025=



000
FTUS42 KMFL 041130
TAFMIA
TAF
KMIA 041130Z 0412/0512 11007KT P6SM FEW020 SCT035
     FM041400 12013G18KT P6SM SCT025 BKN040
     FM050000 12009KT P6SM SCT025=



000
FTUS42 KMFL 041130
TAFPBI
TAF
KPBI 041130Z 0412/0512 13010KT P6SM SCT023
     FM041400 13013G18KT P6SM SCT025 BKN040
     FM050200 13010KT P6SM SCT025=



000
FTUS42 KMFL 041130
TAFMIA
TAF
KMIA 041130Z 0412/0512 11007KT P6SM FEW020 SCT035
     FM041400 12013G18KT P6SM SCT025 BKN040
     FM050000 12009KT P6SM SCT025=



000
FTUS42 KMFL 041130
TAFAPF
TAF
KAPF 041130Z 0412/0512 10005KT P6SM FEW005
      TEMPO 0412/0413 4SM BR SCT005
     FM041500 14012KT P6SM SCT040 SCT250
     FM041900 19010KT P6SM SCT050 SCT250
     FM050000 VRB05KT P6SM FEW040 SCT250=



000
FTUS42 KMFL 041130
TAFAPF
TAF
KAPF 041130Z 0412/0512 10005KT P6SM FEW005
      TEMPO 0412/0413 4SM BR SCT005
     FM041500 14012KT P6SM SCT040 SCT250
     FM041900 19010KT P6SM SCT050 SCT250
     FM050000 VRB05KT P6SM FEW040 SCT250=



000
FTUS42 KMFL 041130
TAFFLL
TAF
KFLL 041130Z 0412/0512 13011KT P6SM SCT022
     FM041400 13014G20KT P6SM SCT025 BKN040
     FM050200 13010KT P6SM SCT025=



000
FTUS42 KMFL 041130
TAFPBI
TAF
KPBI 041130Z 0412/0512 13010KT P6SM SCT023
     FM041400 13013G18KT P6SM SCT025 BKN040
     FM050200 13010KT P6SM SCT025=



000
FTUS42 KMFL 041130
TAFFLL
TAF
KFLL 041130Z 0412/0512 13011KT P6SM SCT022
     FM041400 13014G20KT P6SM SCT025 BKN040
     FM050200 13010KT P6SM SCT025=



000
FTUS42 KMFL 041130
TAFAPF
TAF
KAPF 041130Z 0412/0512 10005KT P6SM FEW005
      TEMPO 0412/0413 4SM BR SCT005
     FM041500 14012KT P6SM SCT040 SCT250
     FM041900 19010KT P6SM SCT050 SCT250
     FM050000 VRB05KT P6SM FEW040 SCT250=



000
FTUS42 KMFL 041130
TAFMIA
TAF
KMIA 041130Z 0412/0512 11007KT P6SM FEW020 SCT035
     FM041400 12013G18KT P6SM SCT025 BKN040
     FM050000 12009KT P6SM SCT025=



000
FTUS42 KMFL 041130
TAFPBI
TAF
KPBI 041130Z 0412/0512 13010KT P6SM SCT023
     FM041400 13013G18KT P6SM SCT025 BKN040
     FM050200 13010KT P6SM SCT025=



000
FTUS42 KMFL 041130
TAFAPF
TAF
KAPF 041130Z 0412/0512 10005KT P6SM FEW005
      TEMPO 0412/0413 4SM BR SCT005
     FM041500 14012KT P6SM SCT040 SCT250
     FM041900 19010KT P6SM SCT050 SCT250
     FM050000 VRB05KT P6SM FEW040 SCT250=



000
FTUS42 KMFL 041130
TAFFLL
TAF
KFLL 041130Z 0412/0512 13011KT P6SM SCT022
     FM041400 13014G20KT P6SM SCT025 BKN040
     FM050200 13010KT P6SM SCT025=



000
FTUS42 KMFL 040856 AAA
TAFPBI
TAF AMD
KPBI 040856Z 0409/0506 14011KT P6SM SCT025
     FM041400 14015KT P6SM SCT025 BKN040
     FM050000 14008KT P6SM SCT025=



000
FTUS42 KMFL 040856 AAA
TAFFLL
TAF AMD
KFLL 040856Z 0409/0506 13009KT P6SM FEW015 SCT025
     FM041400 13015KT P6SM SCT025 BKN040
     FM050000 13011KT P6SM SCT025=



000
FTUS42 KMFL 040856 AAA
TAFFLL
TAF AMD
KFLL 040856Z 0409/0506 13009KT P6SM FEW015 SCT025
     FM041400 13015KT P6SM SCT025 BKN040
     FM050000 13011KT P6SM SCT025=



000
FTUS42 KMFL 040856 AAA
TAFPBI
TAF AMD
KPBI 040856Z 0409/0506 14011KT P6SM SCT025
     FM041400 14015KT P6SM SCT025 BKN040
     FM050000 14008KT P6SM SCT025=



000
FTUS42 KMFL 040856 AAA
TAFMIA
TAF AMD
KMIA 040856Z 0409/0506 13010KT P6SM SCT025
     FM041400 12015KT P6SM SCT025 BKN040
     FM050000 12008KT P6SM SCT025=



000
FTUS42 KMFL 040856 AAA
TAFAPF
TAF AMD
KAPF 040856Z 0409/0506 10006KT P6SM SKC
      TEMPO 0410/0413 3SM BR SCT005
     FM041500 14012KT P6SM SCT040 SCT250
     FM041900 19015KT P6SM SCT050 SCT250
     FM050000 VRB05KT P6SM FEW040 SCT250=



000
FTUS42 KMFL 040856 AAA
TAFMIA
TAF AMD
KMIA 040856Z 0409/0506 13010KT P6SM SCT025
     FM041400 12015KT P6SM SCT025 BKN040
     FM050000 12008KT P6SM SCT025=



000
FTUS42 KMFL 040856 AAA
TAFAPF
TAF AMD
KAPF 040856Z 0409/0506 10006KT P6SM SKC
      TEMPO 0410/0413 3SM BR SCT005
     FM041500 14012KT P6SM SCT040 SCT250
     FM041900 19015KT P6SM SCT050 SCT250
     FM050000 VRB05KT P6SM FEW040 SCT250=



000
FTUS42 KMFL 040520
TAFAPF
TAF
KAPF 040520Z 0406/0506 09005KT P6SM FEW010
      TEMPO 0410/0413 3SM BR SCT005
     FM041500 14012KT P6SM SCT040 SCT250
     FM041900 19015KT P6SM SCT050 SCT250
     FM050000 VRB05KT P6SM FEW040 SCT250=



000
FTUS42 KMFL 040520
TAFFLL
TAF
KFLL 040520Z 0406/0506 13012KT P6SM SCT025
     FM041400 13015KT P6SM SCT025 BKN040
     FM050000 13011KT P6SM SCT025=



000
FTUS42 KMFL 040520
TAFMIA
TAF
KMIA 040520Z 0406/0506 12010KT P6SM SCT020
     FM041400 12015KT P6SM SCT025 BKN040
     FM050000 12008KT P6SM SCT025=



000
FTUS42 KMFL 040520
TAFMIA
TAF
KMIA 040520Z 0406/0506 12010KT P6SM SCT020
     FM041400 12015KT P6SM SCT025 BKN040
     FM050000 12008KT P6SM SCT025=



000
FTUS42 KMFL 040520
TAFAPF
TAF
KAPF 040520Z 0406/0506 09005KT P6SM FEW010
      TEMPO 0410/0413 3SM BR SCT005
     FM041500 14012KT P6SM SCT040 SCT250
     FM041900 19015KT P6SM SCT050 SCT250
     FM050000 VRB05KT P6SM FEW040 SCT250=



000
FTUS42 KMFL 040520
TAFMIA
TAF
KMIA 040520Z 0406/0506 12010KT P6SM SCT020
     FM041400 12015KT P6SM SCT025 BKN040
     FM050000 12008KT P6SM SCT025=



000
FTUS42 KMFL 040520
TAFPBI
TAF
KPBI 040520Z 0406/0506 13011KT P6SM SCT025
     FM041400 14015KT P6SM SCT025 BKN040
     FM050000 14008KT P6SM SCT025=



000
FTUS42 KMFL 040520
TAFFLL
TAF
KFLL 040520Z 0406/0506 13012KT P6SM SCT025
     FM041400 13015KT P6SM SCT025 BKN040
     FM050000 13011KT P6SM SCT025=



000
FTUS42 KMFL 040520
TAFPBI
TAF
KPBI 040520Z 0406/0506 13011KT P6SM SCT025
     FM041400 14015KT P6SM SCT025 BKN040
     FM050000 14008KT P6SM SCT025=



000
FTUS42 KMFL 040520
TAFFLL
TAF
KFLL 040520Z 0406/0506 13012KT P6SM SCT025
     FM041400 13015KT P6SM SCT025 BKN040
     FM050000 13011KT P6SM SCT025=



000
FTUS42 KMFL 040520
TAFPBI
TAF
KPBI 040520Z 0406/0506 13011KT P6SM SCT025
     FM041400 14015KT P6SM SCT025 BKN040
     FM050000 14008KT P6SM SCT025=



000
FTUS42 KMFL 040520
TAFAPF
TAF
KAPF 040520Z 0406/0506 09005KT P6SM FEW010
      TEMPO 0410/0413 3SM BR SCT005
     FM041500 14012KT P6SM SCT040 SCT250
     FM041900 19015KT P6SM SCT050 SCT250
     FM050000 VRB05KT P6SM FEW040 SCT250=



000
FTUS42 KMFL 040249 AAA
TAFPBI
TAF AMD
KPBI 040249Z 0403/0424 13010KT P6SM FEW025
     FM041400 14015KT P6SM SCT025 BKN040=



000
FTUS42 KMFL 040249 AAA
TAFFLL
TAF AMD
KFLL 040249Z 0403/0424 12011KT P6SM SCT025
     FM041400 13015KT P6SM SCT025 BKN040=



000
FTUS42 KMFL 040249 AAA
TAFAPF
TAF AMD
KAPF 040249Z 0403/0424 11006KT P6SM SKC
      TEMPO 0411/0413 6SM BR FEW005
     FM041500 14012KT P6SM SCT040 SCT250
     FM041900 18015KT P6SM SCT050 SCT250=



000
FTUS42 KMFL 040249 AAA
TAFMIA
TAF AMD
KMIA 040249Z 0403/0424 10011KT P6SM SCT025 BKN035 BKN300
      TEMPO 0403/0404 BKN025
     FM041400 13015KT P6SM SCT025 BKN040=



000
FTUS42 KMFL 040249 AAA
TAFPBI
TAF AMD
KPBI 040249Z 0403/0424 13010KT P6SM FEW025
     FM041400 14015KT P6SM SCT025 BKN040=



000
FTUS42 KMFL 040249 AAA
TAFFLL
TAF AMD
KFLL 040249Z 0403/0424 12011KT P6SM SCT025
     FM041400 13015KT P6SM SCT025 BKN040=



000
FTUS42 KMFL 040249 AAA
TAFMIA
TAF AMD
KMIA 040249Z 0403/0424 10011KT P6SM SCT025 BKN035 BKN300
      TEMPO 0403/0404 BKN025
     FM041400 13015KT P6SM SCT025 BKN040=



000
FTUS42 KMFL 040249 AAA
TAFAPF
TAF AMD
KAPF 040249Z 0403/0424 11006KT P6SM SKC
      TEMPO 0411/0413 6SM BR FEW005
     FM041500 14012KT P6SM SCT040 SCT250
     FM041900 18015KT P6SM SCT050 SCT250=



000
FTUS42 KMFL 040249 AAA
TAFFLL
TAF AMD
KFLL 040249Z 0403/0424 12011KT P6SM SCT025
     FM041400 13015KT P6SM SCT025 BKN040=



000
FTUS42 KMFL 040249 AAA
TAFMIA
TAF AMD
KMIA 040249Z 0403/0424 10011KT P6SM SCT025 BKN035 BKN300
      TEMPO 0403/0404 BKN025
     FM041400 13015KT P6SM SCT025 BKN040=



000
FTUS42 KMFL 040249 AAA
TAFMIA
TAF AMD
KMIA 040249Z 0403/0424 10011KT P6SM SCT025 BKN035 BKN300
      TEMPO 0403/0404 BKN025
     FM041400 13015KT P6SM SCT025 BKN040=



000
FTUS42 KMFL 040249 AAA
TAFAPF
TAF AMD
KAPF 040249Z 0403/0424 11006KT P6SM SKC
      TEMPO 0411/0413 6SM BR FEW005
     FM041500 14012KT P6SM SCT040 SCT250
     FM041900 18015KT P6SM SCT050 SCT250=



000
FTUS42 KMFL 040249 AAA
TAFFLL
TAF AMD
KFLL 040249Z 0403/0424 12011KT P6SM SCT025
     FM041400 13015KT P6SM SCT025 BKN040=



000
FTUS42 KMFL 040249 AAA
TAFPBI
TAF AMD
KPBI 040249Z 0403/0424 13010KT P6SM FEW025
     FM041400 14015KT P6SM SCT025 BKN040=



000
FTUS42 KMFL 040249 AAA
TAFAPF
TAF AMD
KAPF 040249Z 0403/0424 11006KT P6SM SKC
      TEMPO 0411/0413 6SM BR FEW005
     FM041500 14012KT P6SM SCT040 SCT250
     FM041900 18015KT P6SM SCT050 SCT250=



000
FTUS42 KMFL 040249 AAA
TAFPBI
TAF AMD
KPBI 040249Z 0403/0424 13010KT P6SM FEW025
     FM041400 14015KT P6SM SCT025 BKN040=



000
FTUS42 KMFL 032333
TAFPBI
TAF
KPBI 032333Z 0400/0424 11011KT P6SM SCT022 SCT030 BKN250
     FM041400 14015KT P6SM SCT025 BKN040=



000
FTUS42 KMFL 032333
TAFMIA
TAF
KMIA 032333Z 0400/0424 10011KT P6SM BKN035 BKN300
      TEMPO 0400/0401 BKN030
     FM041400 13015KT P6SM SCT025 BKN040=



000
FTUS42 KMFL 032333
TAFFLL
TAF
KFLL 032333Z 0400/0424 12011KT P6SM SCT025 SCT300
     FM041400 13015KT P6SM SCT025 BKN040=



000
FTUS42 KMFL 032333
TAFAPF
TAF
KAPF 032333Z 0400/0424 17008KT P6SM FEW060
     FM040200 VRB04KT P6SM SKC
      TEMPO 0411/0413 6SM BR FEW005
     FM041500 14012KT P6SM SCT040 SCT250
     FM041900 18015KT P6SM SCT050 SCT250=



000
FTUS42 KMFL 032333
TAFFLL
TAF
KFLL 032333Z 0400/0424 12011KT P6SM SCT025 SCT300
     FM041400 13015KT P6SM SCT025 BKN040=



000
FTUS42 KMFL 032333
TAFPBI
TAF
KPBI 032333Z 0400/0424 11011KT P6SM SCT022 SCT030 BKN250
     FM041400 14015KT P6SM SCT025 BKN040=



000
FTUS42 KMFL 032333
TAFMIA
TAF
KMIA 032333Z 0400/0424 10011KT P6SM BKN035 BKN300
      TEMPO 0400/0401 BKN030
     FM041400 13015KT P6SM SCT025 BKN040=



000
FTUS42 KMFL 032333
TAFAPF
TAF
KAPF 032333Z 0400/0424 17008KT P6SM FEW060
     FM040200 VRB04KT P6SM SKC
      TEMPO 0411/0413 6SM BR FEW005
     FM041500 14012KT P6SM SCT040 SCT250
     FM041900 18015KT P6SM SCT050 SCT250=



000
FTUS42 KMFL 032333
TAFPBI
TAF
KPBI 032333Z 0400/0424 11011KT P6SM SCT022 SCT030 BKN250
     FM041400 14015KT P6SM SCT025 BKN040=



000
FTUS42 KMFL 032333
TAFFLL
TAF
KFLL 032333Z 0400/0424 12011KT P6SM SCT025 SCT300
     FM041400 13015KT P6SM SCT025 BKN040=



000
FTUS42 KMFL 032333
TAFMIA
TAF
KMIA 032333Z 0400/0424 10011KT P6SM BKN035 BKN300
      TEMPO 0400/0401 BKN030
     FM041400 13015KT P6SM SCT025 BKN040=



000
FTUS42 KMFL 032333
TAFAPF
TAF
KAPF 032333Z 0400/0424 17008KT P6SM FEW060
     FM040200 VRB04KT P6SM SKC
      TEMPO 0411/0413 6SM BR FEW005
     FM041500 14012KT P6SM SCT040 SCT250
     FM041900 18015KT P6SM SCT050 SCT250=



000
FTUS42 KMFL 032333
TAFAPF
TAF
KAPF 032333Z 0400/0424 17008KT P6SM FEW060
     FM040200 VRB04KT P6SM SKC
      TEMPO 0411/0413 6SM BR FEW005
     FM041500 14012KT P6SM SCT040 SCT250
     FM041900 18015KT P6SM SCT050 SCT250=



000
FTUS42 KMFL 032333
TAFFLL
TAF
KFLL 032333Z 0400/0424 12011KT P6SM SCT025 SCT300
     FM041400 13015KT P6SM SCT025 BKN040=



000
FTUS42 KMFL 032333
TAFPBI
TAF
KPBI 032333Z 0400/0424 11011KT P6SM SCT022 SCT030 BKN250
     FM041400 14015KT P6SM SCT025 BKN040=



000
FTUS42 KMFL 032333
TAFMIA
TAF
KMIA 032333Z 0400/0424 10011KT P6SM BKN035 BKN300
      TEMPO 0400/0401 BKN030
     FM041400 13015KT P6SM SCT025 BKN040=



000
FTUS42 KMFL 032102 AAA
TAFMIA
TAF AMD
KMIA 032102Z 0321/0418 10015KT P6SM BKN035 BKN300
     FM040200 11009KT P6SM SCT020 SCT250
     FM041400 13015KT P6SM SCT040 SCT250=



000
FTUS42 KMFL 032102 AAA
TAFAPF
TAF AMD
KAPF 032102Z 0321/0418 10011KT P6SM SCT050 SCT250
     FM040200 09004KT P6SM FEW040 SCT250
      TEMPO 0410/0412 09005KT 6SM BR FEW005
     FM041500 14012KT P6SM SCT040 SCT250=



000
FTUS42 KMFL 032102 AAA
TAFMIA
TAF AMD
KMIA 032102Z 0321/0418 10015KT P6SM BKN035 BKN300
     FM040200 11009KT P6SM SCT020 SCT250
     FM041400 13015KT P6SM SCT040 SCT250=



000
FTUS42 KMFL 032102 AAA
TAFFLL
TAF AMD
KFLL 032102Z 0321/0418 10014KT P6SM SCT025
     FM040200 12012KT P6SM FEW020 SCT250
     FM041400 13015KT P6SM SCT040 SCT250=



000
FTUS42 KMFL 032102 AAA
TAFAPF
TAF AMD
KAPF 032102Z 0321/0418 10011KT P6SM SCT050 SCT250
     FM040200 09004KT P6SM FEW040 SCT250
      TEMPO 0410/0412 09005KT 6SM BR FEW005
     FM041500 14012KT P6SM SCT040 SCT250=



000
FTUS42 KMFL 032102 AAA
TAFPBI
TAF AMD
KPBI 032102Z 0321/0418 10013G21KT P6SM SCT022 SCT030 BKN250
      TEMPO 0321/0322 BKN030
     FM040200 12011KT P6SM SCT020 SCT250
     FM041400 14015KT P6SM SCT040 SCT250=



000
FTUS42 KMFL 032102 AAA
TAFPBI
TAF AMD
KPBI 032102Z 0321/0418 10013G21KT P6SM SCT022 SCT030 BKN250
      TEMPO 0321/0322 BKN030
     FM040200 12011KT P6SM SCT020 SCT250
     FM041400 14015KT P6SM SCT040 SCT250=



000
FTUS42 KMFL 032102 AAA
TAFFLL
TAF AMD
KFLL 032102Z 0321/0418 10014KT P6SM SCT025
     FM040200 12012KT P6SM FEW020 SCT250
     FM041400 13015KT P6SM SCT040 SCT250=



000
FTUS42 KMFL 031732
TAFPBI
TAF
KPBI 031732Z 0318/0418 10013G21KT P6SM SCT022 SCT250
     FM040200 12011KT P6SM SCT020 SCT250
     FM041400 14014G20KT P6SM SCT040 SCT250=



000
FTUS42 KMFL 031732
TAFMIA
TAF
KMIA 031732Z 0318/0418 10013KT P6SM SCT029 SCT250
     FM040200 11009KT P6SM SCT020 SCT250
     FM041400 13014G20KT P6SM SCT040 SCT250=



000
FTUS42 KMFL 031732
TAFFLL
TAF
KFLL 031732Z 0318/0418 10015KT P6SM FEW024
     FM040200 12012KT P6SM FEW020 SCT250
     FM041400 13014G20KT P6SM SCT040 SCT250=



000
FTUS42 KMFL 031732
TAFAPF
TAF
KAPF 031732Z 0318/0418 10011G18KT P6SM SCT045 SCT250
     FM040200 09004KT P6SM FEW040 SCT250
      TEMPO 0410/0412 09005KT 4SM BR FEW005
     FM041500 14012KT P6SM SCT040 SCT250=



000
FTUS42 KMFL 031732
TAFMIA
TAF
KMIA 031732Z 0318/0418 10013KT P6SM SCT029 SCT250
     FM040200 11009KT P6SM SCT020 SCT250
     FM041400 13014G20KT P6SM SCT040 SCT250=



000
FTUS42 KMFL 031732
TAFPBI
TAF
KPBI 031732Z 0318/0418 10013G21KT P6SM SCT022 SCT250
     FM040200 12011KT P6SM SCT020 SCT250
     FM041400 14014G20KT P6SM SCT040 SCT250=



000
FTUS42 KMFL 031732
TAFFLL
TAF
KFLL 031732Z 0318/0418 10015KT P6SM FEW024
     FM040200 12012KT P6SM FEW020 SCT250
     FM041400 13014G20KT P6SM SCT040 SCT250=



000
FTUS42 KMFL 031732
TAFPBI
TAF
KPBI 031732Z 0318/0418 10013G21KT P6SM SCT022 SCT250
     FM040200 12011KT P6SM SCT020 SCT250
     FM041400 14014G20KT P6SM SCT040 SCT250=



000
FTUS42 KMFL 031732
TAFAPF
TAF
KAPF 031732Z 0318/0418 10011G18KT P6SM SCT045 SCT250
     FM040200 09004KT P6SM FEW040 SCT250
      TEMPO 0410/0412 09005KT 4SM BR FEW005
     FM041500 14012KT P6SM SCT040 SCT250=



000
FTUS42 KMFL 031732
TAFFLL
TAF
KFLL 031732Z 0318/0418 10015KT P6SM FEW024
     FM040200 12012KT P6SM FEW020 SCT250
     FM041400 13014G20KT P6SM SCT040 SCT250=



000
FTUS42 KMFL 031732
TAFMIA
TAF
KMIA 031732Z 0318/0418 10013KT P6SM SCT029 SCT250
     FM040200 11009KT P6SM SCT020 SCT250
     FM041400 13014G20KT P6SM SCT040 SCT250=



000
FTUS42 KMFL 031732
TAFAPF
TAF
KAPF 031732Z 0318/0418 10011G18KT P6SM SCT045 SCT250
     FM040200 09004KT P6SM FEW040 SCT250
      TEMPO 0410/0412 09005KT 4SM BR FEW005
     FM041500 14012KT P6SM SCT040 SCT250=



000
FTUS42 KMFL 031732
TAFPBI
TAF
KPBI 031732Z 0318/0418 10013G21KT P6SM SCT022 SCT250
     FM040200 12011KT P6SM SCT020 SCT250
     FM041400 14014G20KT P6SM SCT040 SCT250=



000
FTUS42 KMFL 031732
TAFFLL
TAF
KFLL 031732Z 0318/0418 10015KT P6SM FEW024
     FM040200 12012KT P6SM FEW020 SCT250
     FM041400 13014G20KT P6SM SCT040 SCT250=



000
FTUS42 KMFL 031732
TAFMIA
TAF
KMIA 031732Z 0318/0418 10013KT P6SM SCT029 SCT250
     FM040200 11009KT P6SM SCT020 SCT250
     FM041400 13014G20KT P6SM SCT040 SCT250=



000
FTUS42 KMFL 031732
TAFAPF
TAF
KAPF 031732Z 0318/0418 10011G18KT P6SM SCT045 SCT250
     FM040200 09004KT P6SM FEW040 SCT250
      TEMPO 0410/0412 09005KT 4SM BR FEW005
     FM041500 14012KT P6SM SCT040 SCT250=



000
FTUS42 KMFL 031528 AAA
TAFAPF
TAF AMD
KAPF 031528Z 0315/0412 09008KT P6SM SCT019
     FM031700 13010KT P6SM SCT040 SCT250
     FM040500 09004KT P6SM FEW010 SCT250=



000
FTUS42 KMFL 031528 AAA
TAFAPF
TAF AMD
KAPF 031528Z 0315/0412 09008KT P6SM SCT019
     FM031700 13010KT P6SM SCT040 SCT250
     FM040500 09004KT P6SM FEW010 SCT250=



000
FTUS42 KMFL 031524 AAA
TAFMIA
TAF AMD
KMIA 031524Z 0315/0412 09014KT P6SM SCT027 SCT250
     FM040200 11009KT P6SM SCT020 SCT250=



000
FTUS42 KMFL 031524 AAA
TAFMIA
TAF AMD
KMIA 031524Z 0315/0412 09014KT P6SM SCT027 SCT250
     FM040200 11009KT P6SM SCT020 SCT250=



000
FTUS42 KMFL 031522 AAA
TAFFLL
TAF AMD
KFLL 031522Z 0315/0412 10015KT P6SM FEW024
     FM040200 12012KT P6SM FEW020 SCT250=



000
FTUS42 KMFL 031522 AAA
TAFFLL
TAF AMD
KFLL 031522Z 0315/0412 10015KT P6SM FEW024
     FM040200 12012KT P6SM FEW020 SCT250=



000
FTUS42 KMFL 031512 AAA
TAFPBI
TAF AMD
KPBI 031512Z 0315/0412 10014KT P6SM SCT025 SCT250
     FM040200 12011KT P6SM SCT020 SCT250=



000
FTUS42 KMFL 031512 AAA
TAFPBI
TAF AMD
KPBI 031512Z 0315/0412 10014KT P6SM SCT025 SCT250
     FM040200 12011KT P6SM SCT020 SCT250=



000
FTUS42 KMFL 031512 AAA
TAFPBI
TAF AMD
KPBI 031512Z 0315/0412 10014KT P6SM SCT025 SCT250
     FM040200 12011KT P6SM SCT020 SCT250=



000
FTUS42 KMFL 031132
TAFFLL
TAF
KFLL 031132Z 0312/0412 09007KT P6SM FEW020
     FM031500 11015G20KT P6SM SCT025
     FM040200 12012KT P6SM FEW020 SCT250=



000
FTUS42 KMFL 031132
TAFMIA
TAF
KMIA 031132Z 0312/0412 10006KT P6SM FEW022
     FM031500 10014G20KT P6SM SCT025
     FM040200 11009KT P6SM SCT020 SCT250=



000
FTUS42 KMFL 031132
TAFFLL
TAF
KFLL 031132Z 0312/0412 09007KT P6SM FEW020
     FM031500 11015G20KT P6SM SCT025
     FM040200 12012KT P6SM FEW020 SCT250=



000
FTUS42 KMFL 031132
TAFPBI
TAF
KPBI 031132Z 0312/0412 09007KT P6SM FEW020
     FM031500 10014G20KT P6SM SCT025
     FM040200 12011KT P6SM SCT020 SCT250=



000
FTUS42 KMFL 031132
TAFAPF
TAF
KAPF 031132Z 0312/0412 05005KT P6SM FEW005
      TEMPO 0312/0314 5SM BR SCT005
     FM031400 09008KT P6SM SCT020
     FM031700 13011KT P6SM SCT040 SCT250
     FM040500 09004KT P6SM FEW010 SCT250=



000
FTUS42 KMFL 031132
TAFMIA
TAF
KMIA 031132Z 0312/0412 10006KT P6SM FEW022
     FM031500 10014G20KT P6SM SCT025
     FM040200 11009KT P6SM SCT020 SCT250=



000
FTUS42 KMFL 031132
TAFAPF
TAF
KAPF 031132Z 0312/0412 05005KT P6SM FEW005
      TEMPO 0312/0314 5SM BR SCT005
     FM031400 09008KT P6SM SCT020
     FM031700 13011KT P6SM SCT040 SCT250
     FM040500 09004KT P6SM FEW010 SCT250=



000
FTUS42 KMFL 031132
TAFFLL
TAF
KFLL 031132Z 0312/0412 09007KT P6SM FEW020
     FM031500 11015G20KT P6SM SCT025
     FM040200 12012KT P6SM FEW020 SCT250=



000
FTUS42 KMFL 031132
TAFFLL
TAF
KFLL 031132Z 0312/0412 09007KT P6SM FEW020
     FM031500 11015G20KT P6SM SCT025
     FM040200 12012KT P6SM FEW020 SCT250=



000
FTUS42 KMFL 031132
TAFPBI
TAF
KPBI 031132Z 0312/0412 09007KT P6SM FEW020
     FM031500 10014G20KT P6SM SCT025
     FM040200 12011KT P6SM SCT020 SCT250=



000
FTUS42 KMFL 031132
TAFMIA
TAF
KMIA 031132Z 0312/0412 10006KT P6SM FEW022
     FM031500 10014G20KT P6SM SCT025
     FM040200 11009KT P6SM SCT020 SCT250=



000
FTUS42 KMFL 031132
TAFAPF
TAF
KAPF 031132Z 0312/0412 05005KT P6SM FEW005
      TEMPO 0312/0314 5SM BR SCT005
     FM031400 09008KT P6SM SCT020
     FM031700 13011KT P6SM SCT040 SCT250
     FM040500 09004KT P6SM FEW010 SCT250=



000
FTUS42 KMFL 031132
TAFPBI
TAF
KPBI 031132Z 0312/0412 09007KT P6SM FEW020
     FM031500 10014G20KT P6SM SCT025
     FM040200 12011KT P6SM SCT020 SCT250=



000
FTUS42 KMFL 031132
TAFAPF
TAF
KAPF 031132Z 0312/0412 05005KT P6SM FEW005
      TEMPO 0312/0314 5SM BR SCT005
     FM031400 09008KT P6SM SCT020
     FM031700 13011KT P6SM SCT040 SCT250
     FM040500 09004KT P6SM FEW010 SCT250=



000
FTUS42 KMFL 031132
TAFMIA
TAF
KMIA 031132Z 0312/0412 10006KT P6SM FEW022
     FM031500 10014G20KT P6SM SCT025
     FM040200 11009KT P6SM SCT020 SCT250=



000
FTUS42 KMFL 031004 AAA
TAFFLL
TAF AMD
KFLL 031004Z 0310/0406 09008KT P6SM FEW020
     FM031500 11015KT P6SM SCT025
     FM040200 11008KT P6SM FEW020=



000
FTUS42 KMFL 031004 AAA
TAFPBI
TAF AMD
KPBI 031004Z 0310/0406 10006KT P6SM FEW020
     FM031500 10014KT P6SM SCT025
     FM040200 12009KT P6SM SCT020=



000
FTUS42 KMFL 031004 AAA
TAFFLL
TAF AMD
KFLL 031004Z 0310/0406 09008KT P6SM FEW020
     FM031500 11015KT P6SM SCT025
     FM040200 11008KT P6SM FEW020=



000
FTUS42 KMFL 031004 AAA
TAFPBI
TAF AMD
KPBI 031004Z 0310/0406 10006KT P6SM FEW020
     FM031500 10014KT P6SM SCT025
     FM040200 12009KT P6SM SCT020=



000
FTUS42 KMFL 031004 AAA
TAFAPF
TAF AMD
KAPF 031004Z 0310/0406 07005KT P6SM SCT010
     FM031300 09008KT P6SM SCT020
     FM031600 13011KT P6SM SCT040
     FM040500 09004KT P6SM FEW010=



000
FTUS42 KMFL 031004 AAA
TAFMIA
TAF AMD
KMIA 031004Z 0310/0406 09005KT P6SM FEW022
     FM031500 10015KT P6SM SCT025
     FM040200 10007KT P6SM SCT020=



000
FTUS42 KMFL 031004 AAA
TAFAPF
TAF AMD
KAPF 031004Z 0310/0406 07005KT P6SM SCT010
     FM031300 09008KT P6SM SCT020
     FM031600 13011KT P6SM SCT040
     FM040500 09004KT P6SM FEW010=



000
FTUS42 KMFL 031004 AAA
TAFMIA
TAF AMD
KMIA 031004Z 0310/0406 09005KT P6SM FEW022
     FM031500 10015KT P6SM SCT025
     FM040200 10007KT P6SM SCT020=



000
FTUS42 KMFL 030520
TAFMIA
TAF
KMIA 030520Z 0306/0406 06004KT P6SM SCT020
     FM031500 10015KT P6SM SCT025
     FM040200 10007KT P6SM SCT020=



000
FTUS42 KMFL 030520
TAFAPF
TAF
KAPF 030520Z 0306/0406 12004KT P6SM FEW010
     FM031000 05003KT 3SM BR SCT005 SCT015
     FM031300 09008KT P6SM SCT015
     FM031600 13011KT P6SM FEW050
     FM040500 09004KT P6SM FEW010=



000
FTUS42 KMFL 030520
TAFFLL
TAF
KFLL 030520Z 0306/0406 10009KT P6SM SCT020
     FM031500 11015KT P6SM SCT025
     FM040200 11008KT P6SM FEW020=



000
FTUS42 KMFL 030520
TAFPBI
TAF
KPBI 030520Z 0306/0406 09007KT P6SM SCT015
     FM031500 10014KT P6SM SCT025
     FM040200 12009KT P6SM SCT020=



000
FTUS42 KMFL 030520
TAFAPF
TAF
KAPF 030520Z 0306/0406 12004KT P6SM FEW010
     FM031000 05003KT 3SM BR SCT005 SCT015
     FM031300 09008KT P6SM SCT015
     FM031600 13011KT P6SM FEW050
     FM040500 09004KT P6SM FEW010=



000
FTUS42 KMFL 030520
TAFPBI
TAF
KPBI 030520Z 0306/0406 09007KT P6SM SCT015
     FM031500 10014KT P6SM SCT025
     FM040200 12009KT P6SM SCT020=



000
FTUS42 KMFL 030520
TAFFLL
TAF
KFLL 030520Z 0306/0406 10009KT P6SM SCT020
     FM031500 11015KT P6SM SCT025
     FM040200 11008KT P6SM FEW020=



000
FTUS42 KMFL 030520
TAFMIA
TAF
KMIA 030520Z 0306/0406 06004KT P6SM SCT020
     FM031500 10015KT P6SM SCT025
     FM040200 10007KT P6SM SCT020=



000
FTUS42 KMFL 030251 AAA
TAFFLL
TAF AMD
KFLL 030251Z 0303/0324 07007KT P6SM SCT025 BKN040
     FM031500 11015KT P6SM SCT025=



000
FTUS42 KMFL 030251 AAA
TAFAPF
TAF AMD
KAPF 030251Z 0303/0324 VRB04KT P6SM SKC
     FM031000 05003KT 3SM BR SCT005 SCT015
     FM031300 09008KT P6SM SCT015
     FM031600 13011KT P6SM FEW050=



000
FTUS42 KMFL 030251 AAA
TAFMIA
TAF AMD
KMIA 030251Z 0303/0324 07007KT P6SM FEW025
     FM031500 10015KT P6SM SCT025=



000
FTUS42 KMFL 030251 AAA
TAFPBI
TAF AMD
KPBI 030251Z 0303/0324 07007KT P6SM FEW025
     FM031500 10014KT P6SM SCT025=



000
FTUS42 KMFL 030251 AAA
TAFAPF
TAF AMD
KAPF 030251Z 0303/0324 VRB04KT P6SM SKC
     FM031000 05003KT 3SM BR SCT005 SCT015
     FM031300 09008KT P6SM SCT015
     FM031600 13011KT P6SM FEW050=



000
FTUS42 KMFL 030251 AAA
TAFMIA
TAF AMD
KMIA 030251Z 0303/0324 07007KT P6SM FEW025
     FM031500 10015KT P6SM SCT025=



000
FTUS42 KMFL 030251 AAA
TAFFLL
TAF AMD
KFLL 030251Z 0303/0324 07007KT P6SM SCT025 BKN040
     FM031500 11015KT P6SM SCT025=



000
FTUS42 KMFL 030251 AAA
TAFPBI
TAF AMD
KPBI 030251Z 0303/0324 07007KT P6SM FEW025
     FM031500 10014KT P6SM SCT025=



000
FTUS42 KMFL 030251 AAA
TAFMIA
TAF AMD
KMIA 030251Z 0303/0324 07007KT P6SM FEW025
     FM031500 10015KT P6SM SCT025=



000
FTUS42 KMFL 030251 AAA
TAFFLL
TAF AMD
KFLL 030251Z 0303/0324 07007KT P6SM SCT025 BKN040
     FM031500 11015KT P6SM SCT025=



000
FTUS42 KMFL 030251 AAA
TAFAPF
TAF AMD
KAPF 030251Z 0303/0324 VRB04KT P6SM SKC
     FM031000 05003KT 3SM BR SCT005 SCT015
     FM031300 09008KT P6SM SCT015
     FM031600 13011KT P6SM FEW050=



000
FTUS42 KMFL 030251 AAA
TAFMIA
TAF AMD
KMIA 030251Z 0303/0324 07007KT P6SM FEW025
     FM031500 10015KT P6SM SCT025=



000
FTUS42 KMFL 030251 AAA
TAFFLL
TAF AMD
KFLL 030251Z 0303/0324 07007KT P6SM SCT025 BKN040
     FM031500 11015KT P6SM SCT025=



000
FTUS42 KMFL 030251 AAA
TAFAPF
TAF AMD
KAPF 030251Z 0303/0324 VRB04KT P6SM SKC
     FM031000 05003KT 3SM BR SCT005 SCT015
     FM031300 09008KT P6SM SCT015
     FM031600 13011KT P6SM FEW050=



000
FTUS42 KMFL 030251 AAA
TAFPBI
TAF AMD
KPBI 030251Z 0303/0324 07007KT P6SM FEW025
     FM031500 10014KT P6SM SCT025=



    US Dept of Commerce
    National Oceanic and Atmospheric Administration
    National Weather Service
    1325 East West Highway
    Silver Spring, MD 20910
    Page Author: NWS Internet Services Team
Disclaimer
Information Quality
Credits
Glossary
Privacy Policy
Freedom of Information Act (FOIA)
About Us
Career Opportunities